sensor_id;sensor_type;location;lat;lon;timestamp;P1;durP1;ratioP1;P2;durP2;ratioP2
15488;SDS011;7846;48.830;9.116;2022-09-25T00:01:12;11.37;;;10.37;;
15488;SDS011;7846;48.830;9.116;2022-09-25T00:03:38;11.73;;;10.73;;
15488;SDS011;7846;48.830;9.116;2022-09-25T00:06:05;11.80;;;10.80;;
15488;SDS011;7846;48.830;9.116;2022-09-25T00:08:33;12.20;;;10.90;;
15488;SDS011;7846;48.830;9.116;2022-09-25T00:10:59;11.57;;;10.50;;
15488;SDS011;7846;48.830;9.116;2022-09-25T00:13:30;12.33;;;11.10;;
15488;SDS011;7846;48.830;9.116;2022-09-25T00:15:55;12.17;;;11.07;;
15488;SDS011;7846;48.830;9.116;2022-09-25T00:18:22;11.47;;;10.47;;
15488;SDS011;7846;48.830;9.116;2022-09-25T00:21:08;12.50;;;11.20;;
15488;SDS011;7846;48.830;9.116;2022-09-25T00:23:38;11.70;;;10.70;;
15488;SDS011;7846;48.830;9.116;2022-09-25T00:26:04;12.43;;;11.33;;
15488;SDS011;7846;48.830;9.116;2022-09-25T00:28:34;11.10;;;10.17;;
15488;SDS011;7846;48.830;9.116;2022-09-25T00:31:01;12.00;;;10.80;;
15488;SDS011;7846;48.830;9.116;2022-09-25T00:33:28;10.00;;;9.17;;
15488;SDS011;7846;48.830;9.116;2022-09-25T00:35:54;11.00;;;10.00;;
15488;SDS011;7846;48.830;9.116;2022-09-25T00:38:20;10.93;;;9.93;;
15488;SDS011;7846;48.830;9.116;2022-09-25T00:40:45;10.67;;;9.77;;
15488;SDS011;7846;48.830;9.116;2022-09-25T00:43:13;10.40;;;9.40;;
15488;SDS011;7846;48.830;9.116;2022-09-25T00:45:39;11.00;;;9.90;;
15488;SDS011;7846;48.830;9.116;2022-09-25T00:48:07;10.37;;;9.47;;
15488;SDS011;7846;48.830;9.116;2022-09-25T00:50:43;10.90;;;9.93;;
15488;SDS011;7846;48.830;9.116;2022-09-25T00:53:19;11.77;;;10.47;;
15488;SDS011;7846;48.830;9.116;2022-09-25T00:55:50;11.03;;;10.10;;
15488;SDS011;7846;48.830;9.116;2022-09-25T00:58:17;11.40;;;10.40;;
15488;SDS011;7846;48.830;9.116;2022-09-25T01:00:46;11.33;;;10.23;;
15488;SDS011;7846;48.830;9.116;2022-09-25T01:03:16;12.43;;;11.33;;
15488;SDS011;7846;48.830;9.116;2022-09-25T01:05:42;12.47;;;11.10;;
15488;SDS011;7846;48.830;9.116;2022-09-25T01:08:10;12.57;;;10.90;;
15488;SDS011;7846;48.830;9.116;2022-09-25T01:10:39;12.27;;;11.27;;
15488;SDS011;7846;48.830;9.116;2022-09-25T01:13:06;13.40;;;11.70;;
15488;SDS011;7846;48.830;9.116;2022-09-25T01:15:51;11.33;;;10.43;;
15488;SDS011;7846;48.830;9.116;2022-09-25T01:18:26;12.80;;;11.50;;
15488;SDS011;7846;48.830;9.116;2022-09-25T01:32:27;13.43;;;12.13;;
15488;SDS011;7846;48.830;9.116;2022-09-25T01:34:58;13.50;;;12.30;;
15488;SDS011;7846;48.830;9.116;2022-09-25T01:40:26;12.93;;;11.73;;
15488;SDS011;7846;48.830;9.116;2022-09-25T01:43:07;13.87;;;11.77;;
15488;SDS011;7846;48.830;9.116;2022-09-25T01:45:51;13.83;;;12.43;;
15488;SDS011;7846;48.830;9.116;2022-09-25T01:48:22;13.63;;;12.27;;
15488;SDS011;7846;48.830;9.116;2022-09-25T01:50:52;13.60;;;12.20;;
15488;SDS011;7846;48.830;9.116;2022-09-25T01:53:40;14.17;;;12.67;;
15488;SDS011;7846;48.830;9.116;2022-09-25T01:58:40;12.83;;;11.63;;
15488;SDS011;7846;48.830;9.116;2022-09-25T02:01:14;13.50;;;12.20;;
15488;SDS011;7846;48.830;9.116;2022-09-25T02:04:00;12.80;;;11.50;;
15488;SDS011;7846;48.830;9.116;2022-09-25T02:06:33;12.83;;;11.57;;
15488;SDS011;7846;48.830;9.116;2022-09-25T02:09:03;13.13;;;12.03;;
15488;SDS011;7846;48.830;9.116;2022-09-25T02:11:41;13.53;;;12.30;;
15488;SDS011;7846;48.830;9.116;2022-09-25T02:14:14;14.10;;;12.70;;
15488;SDS011;7846;48.830;9.116;2022-09-25T02:16:44;13.70;;;12.40;;
15488;SDS011;7846;48.830;9.116;2022-09-25T02:19:14;13.43;;;12.10;;
15488;SDS011;7846;48.830;9.116;2022-09-25T02:22:01;12.83;;;11.63;;
15488;SDS011;7846;48.830;9.116;2022-09-25T02:24:33;13.80;;;12.50;;
15488;SDS011;7846;48.830;9.116;2022-09-25T02:27:04;13.83;;;12.43;;
15488;SDS011;7846;48.830;9.116;2022-09-25T02:29:30;13.80;;;12.13;;
15488;SDS011;7846;48.830;9.116;2022-09-25T02:32:01;13.50;;;12.30;;
15488;SDS011;7846;48.830;9.116;2022-09-25T02:34:36;14.17;;;12.77;;
15488;SDS011;7846;48.830;9.116;2022-09-25T02:37:02;14.27;;;12.87;;
15488;SDS011;7846;48.830;9.116;2022-09-25T02:39:33;13.83;;;12.43;;
15488;SDS011;7846;48.830;9.116;2022-09-25T02:50:28;14.23;;;12.73;;
15488;SDS011;7846;48.830;9.116;2022-09-25T02:53:07;14.40;;;13.07;;
15488;SDS011;7846;48.830;9.116;2022-09-25T02:55:40;13.87;;;12.57;;
15488;SDS011;7846;48.830;9.116;2022-09-25T02:58:25;13.77;;;12.43;;
15488;SDS011;7846;48.830;9.116;2022-09-25T03:00:55;14.07;;;12.70;;
15488;SDS011;7846;48.830;9.116;2022-09-25T03:03:24;13.80;;;12.40;;
15488;SDS011;7846;48.830;9.116;2022-09-25T03:05:51;14.00;;;12.60;;
15488;SDS011;7846;48.830;9.116;2022-09-25T03:08:21;12.87;;;11.57;;
15488;SDS011;7846;48.830;9.116;2022-09-25T03:11:04;13.07;;;11.87;;
15488;SDS011;7846;48.830;9.116;2022-09-25T03:13:30;12.77;;;11.57;;
15488;SDS011;7846;48.830;9.116;2022-09-25T03:16:17;13.27;;;11.97;;
15488;SDS011;7846;48.830;9.116;2022-09-25T03:18:47;12.10;;;11.00;;
15488;SDS011;7846;48.830;9.116;2022-09-25T03:21:13;11.80;;;10.57;;
15488;SDS011;7846;48.830;9.116;2022-09-25T03:23:38;11.27;;;10.17;;
15488;SDS011;7846;48.830;9.116;2022-09-25T03:26:04;10.83;;;9.93;;
15488;SDS011;7846;48.830;9.116;2022-09-25T03:28:30;11.27;;;10.17;;
15488;SDS011;7846;48.830;9.116;2022-09-25T03:30:56;10.80;;;9.87;;
15488;SDS011;7846;48.830;9.116;2022-09-25T03:33:23;11.27;;;10.27;;
15488;SDS011;7846;48.830;9.116;2022-09-25T03:35:58;10.77;;;9.67;;
15488;SDS011;7846;48.830;9.116;2022-09-25T03:38:24;10.67;;;9.77;;
15488;SDS011;7846;48.830;9.116;2022-09-25T03:40:49;10.60;;;9.70;;
15488;SDS011;7846;48.830;9.116;2022-09-25T03:43:15;10.27;;;9.27;;
15488;SDS011;7846;48.830;9.116;2022-09-25T03:45:42;10.43;;;9.40;;
15488;SDS011;7846;48.830;9.116;2022-09-25T03:48:08;10.87;;;9.87;;
15488;SDS011;7846;48.830;9.116;2022-09-25T03:50:33;10.30;;;9.37;;
15488;SDS011;7846;48.830;9.116;2022-09-25T03:52:59;10.73;;;9.63;;
15488;SDS011;7846;48.830;9.116;2022-09-25T03:55:25;11.37;;;10.27;;
15488;SDS011;7846;48.830;9.116;2022-09-25T03:57:51;11.47;;;10.27;;
15488;SDS011;7846;48.830;9.116;2022-09-25T04:00:18;11.47;;;10.47;;
15488;SDS011;7846;48.830;9.116;2022-09-25T04:02:44;11.33;;;10.13;;
15488;SDS011;7846;48.830;9.116;2022-09-25T04:05:11;11.77;;;10.67;;
15488;SDS011;7846;48.830;9.116;2022-09-25T04:07:37;11.60;;;10.30;;
15488;SDS011;7846;48.830;9.116;2022-09-25T04:10:03;11.20;;;10.13;;
15488;SDS011;7846;48.830;9.116;2022-09-25T04:12:28;10.50;;;9.60;;
15488;SDS011;7846;48.830;9.116;2022-09-25T04:14:54;11.30;;;10.30;;
15488;SDS011;7846;48.830;9.116;2022-09-25T04:17:21;11.43;;;10.43;;
15488;SDS011;7846;48.830;9.116;2022-09-25T04:19:47;11.87;;;10.77;;
15488;SDS011;7846;48.830;9.116;2022-09-25T04:22:12;11.63;;;10.43;;
15488;SDS011;7846;48.830;9.116;2022-09-25T04:24:38;11.50;;;10.50;;
15488;SDS011;7846;48.830;9.116;2022-09-25T04:27:12;11.80;;;10.70;;
15488;SDS011;7846;48.830;9.116;2022-09-25T04:29:39;11.87;;;10.67;;
15488;SDS011;7846;48.830;9.116;2022-09-25T04:32:06;11.67;;;10.47;;
15488;SDS011;7846;48.830;9.116;2022-09-25T04:34:50;10.90;;;9.80;;
15488;SDS011;7846;48.830;9.116;2022-09-25T04:37:16;11.57;;;10.57;;
15488;SDS011;7846;48.830;9.116;2022-09-25T04:39:42;11.37;;;10.37;;
15488;SDS011;7846;48.830;9.116;2022-09-25T04:42:07;11.57;;;10.57;;
15488;SDS011;7846;48.830;9.116;2022-09-25T04:44:33;10.90;;;9.90;;
15488;SDS011;7846;48.830;9.116;2022-09-25T04:46:58;11.47;;;10.47;;
15488;SDS011;7846;48.830;9.116;2022-09-25T04:49:24;11.93;;;10.73;;
15488;SDS011;7846;48.830;9.116;2022-09-25T04:51:51;11.10;;;10.10;;
15488;SDS011;7846;48.830;9.116;2022-09-25T04:54:16;11.33;;;10.23;;
15488;SDS011;7846;48.830;9.116;2022-09-25T04:56:42;11.40;;;10.40;;
15488;SDS011;7846;48.830;9.116;2022-09-25T04:59:07;11.90;;;10.70;;
15488;SDS011;7846;48.830;9.116;2022-09-25T05:01:35;10.90;;;10.00;;
15488;SDS011;7846;48.830;9.116;2022-09-25T05:04:01;11.67;;;10.47;;
15488;SDS011;7846;48.830;9.116;2022-09-25T05:06:29;11.90;;;10.90;;
15488;SDS011;7846;48.830;9.116;2022-09-25T05:08:55;12.50;;;11.20;;
15488;SDS011;7846;48.830;9.116;2022-09-25T05:11:21;12.47;;;11.20;;
15488;SDS011;7846;48.830;9.116;2022-09-25T05:13:50;11.50;;;10.40;;
15488;SDS011;7846;48.830;9.116;2022-09-25T05:16:16;12.90;;;11.70;;
15488;SDS011;7846;48.830;9.116;2022-09-25T05:18:42;12.80;;;11.50;;
15488;SDS011;7846;48.830;9.116;2022-09-25T05:21:08;12.33;;;11.23;;
15488;SDS011;7846;48.830;9.116;2022-09-25T05:23:36;12.50;;;11.20;;
15488;SDS011;7846;48.830;9.116;2022-09-25T05:26:02;12.67;;;11.57;;
15488;SDS011;7846;48.830;9.116;2022-09-25T05:28:28;13.30;;;12.10;;
15488;SDS011;7846;48.830;9.116;2022-09-25T05:30:54;12.83;;;11.53;;
15488;SDS011;7846;48.830;9.116;2022-09-25T05:33:22;13.53;;;12.23;;
15488;SDS011;7846;48.830;9.116;2022-09-25T05:35:48;12.60;;;11.40;;
15488;SDS011;7846;48.830;9.116;2022-09-25T05:38:15;12.80;;;11.60;;
15488;SDS011;7846;48.830;9.116;2022-09-25T05:40:40;13.80;;;12.50;;
15488;SDS011;7846;48.830;9.116;2022-09-25T05:43:06;13.47;;;12.20;;
15488;SDS011;7846;48.830;9.116;2022-09-25T05:45:31;13.23;;;11.93;;
15488;SDS011;7846;48.830;9.116;2022-09-25T05:47:59;13.00;;;11.90;;
15488;SDS011;7846;48.830;9.116;2022-09-25T05:50:27;14.47;;;12.97;;
15488;SDS011;7846;48.830;9.116;2022-09-25T05:52:54;14.27;;;12.80;;
15488;SDS011;7846;48.830;9.116;2022-09-25T05:55:23;14.23;;;12.67;;
15488;SDS011;7846;48.830;9.116;2022-09-25T05:57:49;14.03;;;12.73;;
15488;SDS011;7846;48.830;9.116;2022-09-25T06:00:15;13.70;;;12.37;;
15488;SDS011;7846;48.830;9.116;2022-09-25T06:02:41;13.80;;;12.40;;
15488;SDS011;7846;48.830;9.116;2022-09-25T06:05:06;13.90;;;12.50;;
15488;SDS011;7846;48.830;9.116;2022-09-25T06:07:33;13.73;;;12.43;;
15488;SDS011;7846;48.830;9.116;2022-09-25T06:09:58;13.70;;;12.40;;
15488;SDS011;7846;48.830;9.116;2022-09-25T06:12:24;13.77;;;12.37;;
15488;SDS011;7846;48.830;9.116;2022-09-25T06:14:52;14.47;;;12.97;;
15488;SDS011;7846;48.830;9.116;2022-09-25T06:17:18;14.23;;;12.93;;
15488;SDS011;7846;48.830;9.116;2022-09-25T06:19:43;14.63;;;13.23;;
15488;SDS011;7846;48.830;9.116;2022-09-25T06:22:10;14.70;;;13.23;;
15488;SDS011;7846;48.830;9.116;2022-09-25T06:24:35;14.57;;;13.17;;
15488;SDS011;7846;48.830;9.116;2022-09-25T06:27:01;14.90;;;13.40;;
15488;SDS011;7846;48.830;9.116;2022-09-25T06:29:26;17.87;;;13.00;;
15488;SDS011;7846;48.830;9.116;2022-09-25T06:31:53;14.23;;;12.93;;
15488;SDS011;7846;48.830;9.116;2022-09-25T06:34:19;14.20;;;12.90;;
15488;SDS011;7846;48.830;9.116;2022-09-25T06:36:44;15.77;;;13.70;;
15488;SDS011;7846;48.830;9.116;2022-09-25T06:39:10;13.20;;;11.90;;
15488;SDS011;7846;48.830;9.116;2022-09-25T06:41:36;14.20;;;12.80;;
15488;SDS011;7846;48.830;9.116;2022-09-25T06:44:02;14.10;;;12.80;;
15488;SDS011;7846;48.830;9.116;2022-09-25T06:46:28;13.53;;;12.23;;
15488;SDS011;7846;48.830;9.116;2022-09-25T06:48:54;13.77;;;12.47;;
15488;SDS011;7846;48.830;9.116;2022-09-25T06:51:24;14.17;;;12.87;;
15488;SDS011;7846;48.830;9.116;2022-09-25T06:53:57;14.03;;;12.73;;
15488;SDS011;7846;48.830;9.116;2022-09-25T06:56:26;16.00;;;14.60;;
15488;SDS011;7846;48.830;9.116;2022-09-25T06:58:51;16.23;;;14.73;;
15488;SDS011;7846;48.830;9.116;2022-09-25T07:01:18;17.10;;;15.40;;
15488;SDS011;7846;48.830;9.116;2022-09-25T07:03:44;17.10;;;15.30;;
15488;SDS011;7846;48.830;9.116;2022-09-25T07:08:43;33.50;;;26.63;;
15488;SDS011;7846;48.830;9.116;2022-09-25T07:11:10;15.80;;;14.20;;
15488;SDS011;7846;48.830;9.116;2022-09-25T07:13:39;14.80;;;12.70;;
15488;SDS011;7846;48.830;9.116;2022-09-25T07:16:06;13.93;;;12.63;;
15488;SDS011;7846;48.830;9.116;2022-09-25T07:18:35;13.60;;;12.30;;
15488;SDS011;7846;48.830;9.116;2022-09-25T07:21:05;12.83;;;11.63;;
15488;SDS011;7846;48.830;9.116;2022-09-25T07:23:32;12.80;;;11.60;;
15488;SDS011;7846;48.830;9.116;2022-09-25T07:28:31;13.00;;;11.80;;
15488;SDS011;7846;48.830;9.116;2022-09-25T07:30:57;11.27;;;10.17;;
15488;SDS011;7846;48.830;9.116;2022-09-25T07:33:36;11.13;;;10.17;;
15488;SDS011;7846;48.830;9.116;2022-09-25T07:36:01;12.03;;;10.93;;
15488;SDS011;7846;48.830;9.116;2022-09-25T07:38:27;12.20;;;10.90;;
15488;SDS011;7846;48.830;9.116;2022-09-25T07:40:55;11.70;;;10.70;;
15488;SDS011;7846;48.830;9.116;2022-09-25T07:43:21;10.87;;;9.97;;
15488;SDS011;7846;48.830;9.116;2022-09-25T07:45:50;11.00;;;10.10;;
15488;SDS011;7846;48.830;9.116;2022-09-25T07:48:19;10.53;;;9.63;;
15488;SDS011;7846;48.830;9.116;2022-09-25T07:50:47;10.70;;;9.70;;
15488;SDS011;7846;48.830;9.116;2022-09-25T07:53:14;10.37;;;9.40;;
15488;SDS011;7846;48.830;9.116;2022-09-25T07:55:42;10.30;;;9.30;;
15488;SDS011;7846;48.830;9.116;2022-09-25T07:58:08;9.13;;;8.33;;
15488;SDS011;7846;48.830;9.116;2022-09-25T08:00:34;9.70;;;8.90;;
15488;SDS011;7846;48.830;9.116;2022-09-25T08:02:59;9.63;;;8.73;;
15488;SDS011;7846;48.830;9.116;2022-09-25T08:05:25;9.50;;;8.70;;
15488;SDS011;7846;48.830;9.116;2022-09-25T08:07:52;10.10;;;9.10;;
15488;SDS011;7846;48.830;9.116;2022-09-25T08:10:18;9.80;;;8.83;;
15488;SDS011;7846;48.830;9.116;2022-09-25T08:12:44;10.30;;;9.50;;
15488;SDS011;7846;48.830;9.116;2022-09-25T08:15:10;10.33;;;9.43;;
15488;SDS011;7846;48.830;9.116;2022-09-25T08:17:35;10.20;;;9.40;;
15488;SDS011;7846;48.830;9.116;2022-09-25T08:20:01;10.40;;;9.37;;
15488;SDS011;7846;48.830;9.116;2022-09-25T08:22:27;10.83;;;9.93;;
15488;SDS011;7846;48.830;9.116;2022-09-25T08:24:53;9.63;;;8.73;;
15488;SDS011;7846;48.830;9.116;2022-09-25T08:27:19;9.13;;;8.33;;
15488;SDS011;7846;48.830;9.116;2022-09-25T08:29:45;9.00;;;8.20;;
15488;SDS011;7846;48.830;9.116;2022-09-25T08:32:10;9.37;;;8.57;;
15488;SDS011;7846;48.830;9.116;2022-09-25T08:34:39;8.50;;;7.70;;
15488;SDS011;7846;48.830;9.116;2022-09-25T08:37:06;9.40;;;8.60;;
15488;SDS011;7846;48.830;9.116;2022-09-25T08:39:32;9.57;;;8.67;;
15488;SDS011;7846;48.830;9.116;2022-09-25T08:41:58;8.73;;;7.83;;
15488;SDS011;7846;48.830;9.116;2022-09-25T08:46:56;6.87;;;6.27;;
15488;SDS011;7846;48.830;9.116;2022-09-25T08:52:24;6.90;;;6.23;;
15488;SDS011;7846;48.830;9.116;2022-09-25T08:54:51;6.93;;;6.33;;
15488;SDS011;7846;48.830;9.116;2022-09-25T09:00:18;8.07;;;6.87;;
15488;SDS011;7846;48.830;9.116;2022-09-25T09:02:46;7.40;;;6.80;;
15488;SDS011;7846;48.830;9.116;2022-09-25T09:05:39;7.57;;;6.87;;
15488;SDS011;7846;48.830;9.116;2022-09-25T09:08:13;7.33;;;6.60;;
15488;SDS011;7846;48.830;9.116;2022-09-25T09:10:44;7.27;;;6.67;;
15488;SDS011;7846;48.830;9.116;2022-09-25T09:13:34;7.50;;;6.90;;
15488;SDS011;7846;48.830;9.116;2022-09-25T09:18:48;8.00;;;6.87;;
15488;SDS011;7846;48.830;9.116;2022-09-25T09:23:58;7.53;;;6.73;;
15488;SDS011;7846;48.830;9.116;2022-09-25T09:32:40;7.33;;;6.73;;
15488;SDS011;7846;48.830;9.116;2022-09-25T09:35:43;7.77;;;7.17;;
15488;SDS011;7846;48.830;9.116;2022-09-25T09:49:38;10.20;;;8.70;;
15488;SDS011;7846;48.830;9.116;2022-09-25T09:52:32;10.53;;;9.37;;
15488;SDS011;7846;48.830;9.116;2022-09-25T09:55:13;10.50;;;9.47;;
15488;SDS011;7846;48.830;9.116;2022-09-25T09:57:47;11.37;;;9.30;;
15488;SDS011;7846;48.830;9.116;2022-09-25T10:00:19;10.10;;;9.10;;
15488;SDS011;7846;48.830;9.116;2022-09-25T10:05:38;10.40;;;9.47;;
15488;SDS011;7846;48.830;9.116;2022-09-25T10:08:09;9.33;;;8.47;;
15488;SDS011;7846;48.830;9.116;2022-09-25T10:10:36;9.97;;;8.97;;
15488;SDS011;7846;48.830;9.116;2022-09-25T10:13:07;11.30;;;10.20;;
15488;SDS011;7846;48.830;9.116;2022-09-25T10:16:04;10.53;;;9.37;;
15488;SDS011;7846;48.830;9.116;2022-09-25T10:18:42;12.20;;;9.60;;
15488;SDS011;7846;48.830;9.116;2022-09-25T10:21:15;11.00;;;9.27;;
15488;SDS011;7846;48.830;9.116;2022-09-25T10:29:01;10.70;;;9.60;;
15488;SDS011;7846;48.830;9.116;2022-09-25T10:31:29;10.50;;;9.50;;
15488;SDS011;7846;48.830;9.116;2022-09-25T10:34:00;13.07;;;11.70;;
15488;SDS011;7846;48.830;9.116;2022-09-25T10:36:42;14.37;;;13.03;;
15488;SDS011;7846;48.830;9.116;2022-09-25T10:42:00;15.87;;;14.30;;
15488;SDS011;7846;48.830;9.116;2022-09-25T10:44:36;16.80;;;15.17;;
15488;SDS011;7846;48.830;9.116;2022-09-25T10:47:27;17.57;;;15.70;;
15488;SDS011;7846;48.830;9.116;2022-09-25T10:52:46;18.50;;;16.67;;
15488;SDS011;7846;48.830;9.116;2022-09-25T10:55:24;19.13;;;15.90;;
15488;SDS011;7846;48.830;9.116;2022-09-25T10:58:10;16.97;;;15.23;;
15488;SDS011;7846;48.830;9.116;2022-09-25T11:03:15;16.20;;;14.53;;
15488;SDS011;7846;48.830;9.116;2022-09-25T11:05:47;16.63;;;14.73;;
15488;SDS011;7846;48.830;9.116;2022-09-25T11:08:16;16.83;;;15.03;;
15488;SDS011;7846;48.830;9.116;2022-09-25T11:10:52;16.67;;;15.03;;
15488;SDS011;7846;48.830;9.116;2022-09-25T11:13:22;16.27;;;14.63;;
15488;SDS011;7846;48.830;9.116;2022-09-25T11:15:55;16.27;;;14.67;;
15488;SDS011;7846;48.830;9.116;2022-09-25T11:18:33;16.27;;;14.70;;
15488;SDS011;7846;48.830;9.116;2022-09-25T11:21:02;16.13;;;14.37;;
15488;SDS011;7846;48.830;9.116;2022-09-25T11:23:34;16.90;;;15.10;;
15488;SDS011;7846;48.830;9.116;2022-09-25T11:26:20;15.67;;;14.13;;
15488;SDS011;7846;48.830;9.116;2022-09-25T11:29:14;16.07;;;14.40;;
15488;SDS011;7846;48.830;9.116;2022-09-25T11:31:48;16.53;;;14.80;;
15488;SDS011;7846;48.830;9.116;2022-09-25T11:40:29;17.43;;;14.17;;
15488;SDS011;7846;48.830;9.116;2022-09-25T11:43:22;15.83;;;14.17;;
15488;SDS011;7846;48.830;9.116;2022-09-25T11:48:54;14.37;;;13.00;;
15488;SDS011;7846;48.830;9.116;2022-09-25T11:51:40;14.27;;;12.87;;
15488;SDS011;7846;48.830;9.116;2022-09-25T11:57:10;14.50;;;13.10;;
15488;SDS011;7846;48.830;9.116;2022-09-25T11:59:58;16.33;;;12.17;;
15488;SDS011;7846;48.830;9.116;2022-09-25T12:11:07;12.60;;;11.30;;
15488;SDS011;7846;48.830;9.116;2022-09-25T12:16:59;12.73;;;11.50;;
15488;SDS011;7846;48.830;9.116;2022-09-25T12:22:44;17.03;;;11.97;;
15488;SDS011;7846;48.830;9.116;2022-09-25T12:34:23;13.47;;;12.17;;
15488;SDS011;7846;48.830;9.116;2022-09-25T12:40:00;10.47;;;9.50;;
15488;SDS011;7846;48.830;9.116;2022-09-25T12:42:40;11.97;;;10.47;;
15488;SDS011;7846;48.830;9.116;2022-09-25T12:45:17;10.30;;;9.47;;
15488;SDS011;7846;48.830;9.116;2022-09-25T12:50:35;9.53;;;8.53;;
15488;SDS011;7846;48.830;9.116;2022-09-25T12:53:21;10.30;;;9.30;;
15488;SDS011;7846;48.830;9.116;2022-09-25T12:56:13;9.80;;;8.80;;
15488;SDS011;7846;48.830;9.116;2022-09-25T13:01:58;8.30;;;7.60;;
15488;SDS011;7846;48.830;9.116;2022-09-25T13:04:35;7.70;;;7.00;;
15488;SDS011;7846;48.830;9.116;2022-09-25T13:07:13;9.50;;;8.70;;
15488;SDS011;7846;48.830;9.116;2022-09-25T13:09:44;9.50;;;8.60;;
15488;SDS011;7846;48.830;9.116;2022-09-25T13:12:23;10.03;;;9.07;;
15488;SDS011;7846;48.830;9.116;2022-09-25T13:17:26;9.90;;;9.10;;
15488;SDS011;7846;48.830;9.116;2022-09-25T13:19:52;10.43;;;9.43;;
15488;SDS011;7846;48.830;9.116;2022-09-25T13:22:22;10.17;;;9.23;;
15488;SDS011;7846;48.830;9.116;2022-09-25T13:24:57;9.90;;;9.00;;
15488;SDS011;7846;48.830;9.116;2022-09-25T13:27:28;9.50;;;8.60;;
15488;SDS011;7846;48.830;9.116;2022-09-25T13:30:27;9.73;;;8.83;;
15488;SDS011;7846;48.830;9.116;2022-09-25T13:32:54;9.27;;;8.37;;
15488;SDS011;7846;48.830;9.116;2022-09-25T13:35:26;9.17;;;8.47;;
15488;SDS011;7846;48.830;9.116;2022-09-25T13:37:54;9.23;;;8.33;;
15488;SDS011;7846;48.830;9.116;2022-09-25T13:40:32;8.97;;;8.10;;
15488;SDS011;7846;48.830;9.116;2022-09-25T13:48:45;7.73;;;7.13;;
15488;SDS011;7846;48.830;9.116;2022-09-25T14:01:41;7.13;;;6.43;;
15488;SDS011;7846;48.830;9.116;2022-09-25T14:06:54;7.43;;;6.83;;
15488;SDS011;7846;48.830;9.116;2022-09-25T14:09:33;8.63;;;7.47;;
15488;SDS011;7846;48.830;9.116;2022-09-25T14:12:02;7.33;;;6.73;;
15488;SDS011;7846;48.830;9.116;2022-09-25T14:14:43;6.70;;;6.20;;
15488;SDS011;7846;48.830;9.116;2022-09-25T14:17:17;6.77;;;5.80;;
15488;SDS011;7846;48.830;9.116;2022-09-25T14:19:46;6.20;;;5.70;;
15488;SDS011;7846;48.830;9.116;2022-09-25T14:27:52;5.40;;;5.00;;
15488;SDS011;7846;48.830;9.116;2022-09-25T14:30:21;5.80;;;5.17;;
15488;SDS011;7846;48.830;9.116;2022-09-25T14:35:38;5.70;;;5.10;;
15488;SDS011;7846;48.830;9.116;2022-09-25T14:40:59;5.83;;;5.43;;
15488;SDS011;7846;48.830;9.116;2022-09-25T14:43:57;5.13;;;4.73;;
15488;SDS011;7846;48.830;9.116;2022-09-25T14:46:25;5.70;;;5.20;;
15488;SDS011;7846;48.830;9.116;2022-09-25T14:48:53;5.57;;;5.10;;
15488;SDS011;7846;48.830;9.116;2022-09-25T14:51:26;5.00;;;4.60;;
15488;SDS011;7846;48.830;9.116;2022-09-25T14:54:04;4.80;;;4.40;;
15488;SDS011;7846;48.830;9.116;2022-09-25T14:56:31;4.93;;;4.50;;
15488;SDS011;7846;48.830;9.116;2022-09-25T14:59:00;4.97;;;4.43;;
15488;SDS011;7846;48.830;9.116;2022-09-25T15:01:44;5.10;;;4.60;;
15488;SDS011;7846;48.830;9.116;2022-09-25T15:04:17;4.60;;;4.23;;
15488;SDS011;7846;48.830;9.116;2022-09-25T15:09:38;4.30;;;4.00;;
15488;SDS011;7846;48.830;9.116;2022-09-25T15:12:28;4.40;;;4.00;;
15488;SDS011;7846;48.830;9.116;2022-09-25T15:15:10;4.37;;;3.97;;
15488;SDS011;7846;48.830;9.116;2022-09-25T15:17:44;4.13;;;3.83;;
15488;SDS011;7846;48.830;9.116;2022-09-25T15:20:14;4.20;;;3.70;;
15488;SDS011;7846;48.830;9.116;2022-09-25T15:22:48;4.70;;;4.27;;
15488;SDS011;7846;48.830;9.116;2022-09-25T15:25:21;4.40;;;4.00;;
15488;SDS011;7846;48.830;9.116;2022-09-25T15:27:49;5.40;;;4.90;;
15488;SDS011;7846;48.830;9.116;2022-09-25T15:30:16;6.50;;;5.83;;
15488;SDS011;7846;48.830;9.116;2022-09-25T15:32:45;6.67;;;6.00;;
15488;SDS011;7846;48.830;9.116;2022-09-25T15:35:20;7.33;;;6.40;;
15488;SDS011;7846;48.830;9.116;2022-09-25T15:37:49;5.90;;;5.40;;
15488;SDS011;7846;48.830;9.116;2022-09-25T15:40:26;6.23;;;5.73;;
15488;SDS011;7846;48.830;9.116;2022-09-25T15:42:54;6.83;;;6.00;;
15488;SDS011;7846;48.830;9.116;2022-09-25T15:48:08;5.30;;;4.80;;
15488;SDS011;7846;48.830;9.116;2022-09-25T15:50:37;2.30;;;2.20;;
15488;SDS011;7846;48.830;9.116;2022-09-25T15:53:15;2.10;;;2.00;;
15488;SDS011;7846;48.830;9.116;2022-09-25T15:55:44;1.80;;;1.70;;
15488;SDS011;7846;48.830;9.116;2022-09-25T15:58:11;1.47;;;1.37;;
15488;SDS011;7846;48.830;9.116;2022-09-25T16:00:39;1.33;;;1.33;;
15488;SDS011;7846;48.830;9.116;2022-09-25T16:03:42;1.70;;;1.60;;
15488;SDS011;7846;48.830;9.116;2022-09-25T16:06:36;1.53;;;1.43;;
15488;SDS011;7846;48.830;9.116;2022-09-25T16:09:18;1.30;;;1.30;;
15488;SDS011;7846;48.830;9.116;2022-09-25T16:11:46;1.50;;;1.50;;
15488;SDS011;7846;48.830;9.116;2022-09-25T16:14:20;1.40;;;1.40;;
15488;SDS011;7846;48.830;9.116;2022-09-25T16:16:53;1.73;;;1.63;;
15488;SDS011;7846;48.830;9.116;2022-09-25T16:19:20;1.80;;;1.70;;
15488;SDS011;7846;48.830;9.116;2022-09-25T16:21:50;1.70;;;1.60;;
15488;SDS011;7846;48.830;9.116;2022-09-25T16:24:18;1.80;;;1.70;;
15488;SDS011;7846;48.830;9.116;2022-09-25T16:26:54;2.23;;;2.00;;
15488;SDS011;7846;48.830;9.116;2022-09-25T16:29:29;2.67;;;2.47;;
15488;SDS011;7846;48.830;9.116;2022-09-25T16:32:01;2.97;;;2.20;;
15488;SDS011;7846;48.830;9.116;2022-09-25T16:34:37;2.90;;;2.70;;
15488;SDS011;7846;48.830;9.116;2022-09-25T16:37:05;3.10;;;2.90;;
15488;SDS011;7846;48.830;9.116;2022-09-25T16:39:42;3.33;;;3.10;;
15488;SDS011;7846;48.830;9.116;2022-09-25T16:44:46;4.77;;;3.57;;
15488;SDS011;7846;48.830;9.116;2022-09-25T16:47:17;4.20;;;3.90;;
15488;SDS011;7846;48.830;9.116;2022-09-25T16:49:44;3.20;;;3.00;;
15488;SDS011;7846;48.830;9.116;2022-09-25T16:52:16;3.20;;;3.00;;
15488;SDS011;7846;48.830;9.116;2022-09-25T16:54:49;3.40;;;3.20;;
15488;SDS011;7846;48.830;9.116;2022-09-25T16:57:18;4.50;;;4.20;;
15488;SDS011;7846;48.830;9.116;2022-09-25T16:59:48;3.77;;;3.57;;
15488;SDS011;7846;48.830;9.116;2022-09-25T17:02:21;4.40;;;4.00;;
15488;SDS011;7846;48.830;9.116;2022-09-25T17:04:50;4.40;;;4.10;;
15488;SDS011;7846;48.830;9.116;2022-09-25T17:07:16;4.57;;;4.27;;
15488;SDS011;7846;48.830;9.116;2022-09-25T17:09:41;5.97;;;5.47;;
15488;SDS011;7846;48.830;9.116;2022-09-25T17:12:08;8.50;;;7.80;;
15488;SDS011;7846;48.830;9.116;2022-09-25T17:14:40;10.80;;;9.90;;
15488;SDS011;7846;48.830;9.116;2022-09-25T17:17:07;11.43;;;10.27;;
15488;SDS011;7846;48.830;9.116;2022-09-25T17:19:33;12.20;;;10.97;;
15488;SDS011;7846;48.830;9.116;2022-09-25T17:21:59;11.50;;;10.50;;
15488;SDS011;7846;48.830;9.116;2022-09-25T17:24:25;12.30;;;11.20;;
15488;SDS011;7846;48.830;9.116;2022-09-25T17:26:51;11.50;;;10.40;;
15488;SDS011;7846;48.830;9.116;2022-09-25T17:29:17;10.03;;;9.23;;
15488;SDS011;7846;48.830;9.116;2022-09-25T17:31:43;11.60;;;10.60;;
15488;SDS011;7846;48.830;9.116;2022-09-25T17:34:14;10.67;;;9.67;;
15488;SDS011;7846;48.830;9.116;2022-09-25T17:36:41;10.07;;;9.07;;
15488;SDS011;7846;48.830;9.116;2022-09-25T17:39:07;11.20;;;10.30;;
15488;SDS011;7846;48.830;9.116;2022-09-25T17:41:34;11.87;;;10.77;;
15488;SDS011;7846;48.830;9.116;2022-09-25T17:44:00;12.23;;;11.13;;
15488;SDS011;7846;48.830;9.116;2022-09-25T17:46:27;13.57;;;12.37;;
15488;SDS011;7846;48.830;9.116;2022-09-25T17:48:54;13.20;;;12.00;;
15488;SDS011;7846;48.830;9.116;2022-09-25T17:51:23;12.63;;;11.50;;